createdAt,value
2019-05-17T00:00:10.646Z,86.95
2019-05-17T00:00:40.709Z,87.04
2019-05-17T00:01:10.645Z,87.05
2019-05-17T00:01:40.712Z,87.07
2019-05-17T00:02:10.653Z,87.13
2019-05-17T00:02:40.711Z,87.10
2019-05-17T00:03:10.675Z,87.13
2019-05-17T00:03:40.723Z,87.16
2019-05-17T00:04:10.650Z,87.21
2019-05-17T00:04:40.715Z,87.25
2019-05-17T00:05:10.649Z,87.32
2019-05-17T00:05:40.778Z,87.29
2019-05-17T00:06:11.664Z,87.28
2019-05-17T00:06:43.475Z,87.28
2019-05-17T00:07:10.650Z,87.28
2019-05-17T00:07:40.719Z,87.30
2019-05-17T00:08:10.654Z,87.33
2019-05-17T00:08:40.712Z,87.35
2019-05-17T00:09:10.651Z,87.38
2019-05-17T00:09:43.604Z,87.45
2019-05-17T00:10:10.648Z,87.43
2019-05-17T00:10:40.726Z,87.49
2019-05-17T00:11:10.794Z,87.53
2019-05-17T00:11:40.709Z,87.51
2019-05-17T00:12:10.650Z,87.57
2019-05-17T00:12:40.710Z,87.55
2019-05-17T00:13:14.580Z,87.60
2019-05-17T00:13:40.712Z,87.64
2019-05-17T00:14:10.652Z,87.71
2019-05-17T00:14:40.712Z,87.76
2019-05-17T00:15:10.646Z,87.83
2019-05-17T00:15:40.708Z,87.89
2019-05-17T00:16:10.648Z,87.97
2019-05-17T00:16:40.710Z,88.01
2019-05-17T00:17:13.272Z,87.97
2019-05-17T00:17:40.723Z,87.98
2019-05-17T00:18:10.778Z,87.97
2019-05-17T00:18:40.715Z,88.01
2019-05-17T00:19:10.658Z,88.05
2019-05-17T00:19:40.718Z,88.04
2019-05-17T00:20:13.350Z,87.99
2019-05-17T00:20:40.729Z,88.06
2019-05-17T00:21:10.726Z,88.10
2019-05-17T00:21:40.714Z,88.08
2019-05-17T00:22:10.676Z,88.17
2019-05-17T00:22:40.718Z,88.19
2019-05-17T00:23:10.655Z,88.25
2019-05-17T00:23:40.726Z,88.33
2019-05-17T00:24:10.657Z,88.37
2019-05-17T00:24:40.723Z,88.44
2019-05-17T00:25:10.654Z,88.48
2019-05-17T00:25:40.712Z,88.50
2019-05-17T00:26:10.648Z,88.48
2019-05-17T00:26:40.870Z,88.41
2019-05-17T00:27:10.656Z,88.40
2019-05-17T00:27:43.567Z,88.42
2019-05-17T00:28:10.651Z,88.45
2019-05-17T00:28:40.709Z,88.51
2019-05-17T00:29:10.656Z,88.46
2019-05-17T00:29:40.721Z,88.52
2019-05-17T00:30:10.660Z,88.54
2019-05-17T00:30:43.570Z,88.57
2019-05-17T00:31:10.666Z,88.57
2019-05-17T00:31:40.716Z,88.62
2019-05-17T00:32:10.662Z,88.64
2019-05-17T00:32:40.784Z,88.74
2019-05-17T00:33:10.664Z,88.77
2019-05-17T00:33:40.718Z,88.82
2019-05-17T00:34:10.656Z,88.88
2019-05-17T00:34:40.718Z,88.93
2019-05-17T00:35:10.660Z,88.95
2019-05-17T00:35:40.713Z,88.94
2019-05-17T00:36:10.676Z,88.94
2019-05-17T00:36:40.721Z,88.96
2019-05-17T00:37:10.652Z,89.00
2019-05-17T00:37:40.715Z,89.00
2019-05-17T00:38:13.520Z,89.06
2019-05-17T00:38:48.078Z,89.08
2019-05-17T00:39:10.654Z,89.07
2019-05-17T00:39:40.717Z,89.12
2019-05-17T00:40:10.653Z,89.08
2019-05-17T00:40:40.717Z,89.09
2019-05-17T00:41:13.566Z,89.11
2019-05-17T00:41:40.737Z,89.12
2019-05-17T00:42:10.655Z,89.11
2019-05-17T00:42:40.713Z,89.09
2019-05-17T00:43:10.694Z,89.10
2019-05-17T00:43:40.716Z,89.11
2019-05-17T00:44:10.664Z,89.09
2019-05-17T00:44:40.718Z,89.09
2019-05-17T00:45:10.656Z,89.09
2019-05-17T00:45:40.715Z,89.12
2019-05-17T00:46:10.658Z,89.12
2019-05-17T00:46:40.715Z,89.16
2019-05-17T00:47:10.659Z,89.20
2019-05-17T00:47:40.722Z,89.21
2019-05-17T00:48:10.669Z,89.28
2019-05-17T00:48:43.254Z,89.30
2019-05-17T00:49:10.684Z,89.29
2019-05-17T00:49:40.721Z,89.33
2019-05-17T00:50:10.664Z,89.34
2019-05-17T00:50:40.729Z,89.36
2019-05-17T00:51:11.680Z,89.36
2019-05-17T00:51:43.181Z,89.41
2019-05-17T00:52:10.658Z,89.40
2019-05-17T00:52:40.724Z,89.45
2019-05-17T00:53:10.657Z,89.40
2019-05-17T00:53:40.768Z,89.41
2019-05-17T00:54:10.661Z,89.38
2019-05-17T00:54:40.721Z,89.38
2019-05-17T00:55:10.653Z,89.35
2019-05-17T00:55:40.729Z,89.33
2019-05-17T00:56:10.657Z,89.31
2019-05-17T00:56:40.718Z,89.29
2019-05-17T00:57:10.652Z,89.27
2019-05-17T00:57:40.769Z,89.32
2019-05-17T00:58:10.664Z,89.32
2019-05-17T00:58:40.720Z,89.35
2019-05-17T00:59:13.312Z,89.37
2019-05-17T00:59:40.723Z,89.43
2019-05-17T01:00:10.660Z,89.47
2019-05-17T01:00:40.729Z,89.48
2019-05-17T01:01:10.662Z,89.54
2019-05-17T01:01:40.719Z,89.58
2019-05-17T01:02:13.500Z,89.64
2019-05-17T01:02:40.720Z,89.64
2019-05-17T01:03:10.657Z,89.68
2019-05-17T01:03:40.725Z,89.72
2019-05-17T01:04:10.667Z,89.71
2019-05-17T01:04:40.726Z,89.72
2019-05-17T01:05:10.668Z,89.76
2019-05-17T01:05:40.726Z,89.82
2019-05-17T01:06:10.662Z,89.84
2019-05-17T01:06:40.729Z,89.87
2019-05-17T01:07:10.661Z,89.91
2019-05-17T01:07:40.732Z,89.91
2019-05-17T01:08:10.663Z,89.91
2019-05-17T01:08:40.725Z,89.89
2019-05-17T01:09:10.660Z,89.86
2019-05-17T01:09:43.465Z,89.86
2019-05-17T01:10:10.665Z,89.84
2019-05-17T01:10:40.725Z,89.84
2019-05-17T01:11:10.666Z,89.86
2019-05-17T01:11:40.720Z,89.89
2019-05-17T01:12:10.767Z,89.87
2019-05-17T01:12:43.172Z,89.89
2019-05-17T01:13:10.660Z,89.94
2019-05-17T01:13:40.720Z,89.96
2019-05-17T01:14:10.663Z,89.97
2019-05-17T01:14:40.724Z,89.96
2019-05-17T01:15:10.663Z,89.98
2019-05-17T01:15:40.724Z,90.03
2019-05-17T01:16:10.671Z,90.04
2019-05-17T01:16:40.720Z,90.08
2019-05-17T01:17:10.664Z,90.12
2019-05-17T01:17:40.723Z,90.17
2019-05-17T01:18:10.671Z,90.17
2019-05-17T01:18:40.727Z,90.18
2019-05-17T01:19:10.667Z,90.18
2019-05-17T01:19:40.728Z,90.20
2019-05-17T01:20:13.250Z,90.18
2019-05-17T01:20:40.737Z,90.15
2019-05-17T01:21:10.664Z,90.20
2019-05-17T01:21:40.725Z,90.18
2019-05-17T01:22:10.664Z,90.13
2019-05-17T01:22:40.723Z,90.09
2019-05-17T01:23:13.342Z,90.06
2019-05-17T01:23:40.729Z,90.04
2019-05-17T01:24:10.670Z,90.02
2019-05-17T01:24:40.761Z,90.08
2019-05-17T01:25:10.670Z,90.07
2019-05-17T01:25:40.724Z,90.10
2019-05-17T01:26:10.667Z,90.14
2019-05-17T01:26:40.753Z,90.17
2019-05-17T01:27:10.673Z,90.10
2019-05-17T01:27:40.723Z,90.11
2019-05-17T01:28:10.677Z,90.13
2019-05-17T01:28:40.737Z,90.15
2019-05-17T01:29:10.679Z,90.14
2019-05-17T01:29:40.726Z,90.15
2019-05-17T01:30:10.664Z,90.20
2019-05-17T01:30:43.481Z,90.23
2019-05-17T01:31:10.667Z,90.20
2019-05-17T01:31:40.729Z,90.23
2019-05-17T01:32:10.670Z,90.21
2019-05-17T01:32:40.730Z,90.20
2019-05-17T01:33:10.831Z,90.23
2019-05-17T01:33:43.539Z,90.30
2019-05-17T01:34:10.673Z,90.37
2019-05-17T01:34:40.728Z,90.44
2019-05-17T01:35:10.675Z,90.55
2019-05-17T01:35:40.731Z,90.62
2019-05-17T01:36:10.671Z,90.68
2019-05-17T01:36:40.733Z,90.73
2019-05-17T01:37:10.747Z,90.70
2019-05-17T01:37:40.730Z,90.67
2019-05-17T01:38:10.677Z,90.61
2019-05-17T01:38:40.735Z,90.55
2019-05-17T01:39:17.161Z,90.59
2019-05-17T01:39:40.729Z,90.56
2019-05-17T01:40:10.672Z,90.55
2019-05-17T01:40:40.734Z,90.55
2019-05-17T01:41:13.244Z,90.54
2019-05-17T01:41:40.735Z,90.50
2019-05-17T01:42:10.670Z,90.51
2019-05-17T01:42:40.735Z,90.58
2019-05-17T01:43:10.671Z,90.55
2019-05-17T01:43:40.825Z,90.56
2019-05-17T01:44:13.330Z,90.56
2019-05-17T01:44:40.727Z,90.51
2019-05-17T01:45:10.773Z,90.54
2019-05-17T01:45:40.735Z,90.57
2019-05-17T01:46:10.673Z,90.56
2019-05-17T01:46:40.731Z,90.58
2019-05-17T01:47:10.755Z,90.59
2019-05-17T01:47:40.729Z,90.61
2019-05-17T01:48:10.672Z,90.59
2019-05-17T01:48:40.781Z,90.62
2019-05-17T01:49:10.681Z,90.57
2019-05-17T01:49:40.727Z,90.57
2019-05-17T01:50:10.683Z,90.60
2019-05-17T01:50:42.628Z,90.67
2019-05-17T01:51:12.207Z,90.73
2019-05-17T01:51:43.391Z,90.74
2019-05-17T01:52:10.673Z,90.76
2019-05-17T01:52:40.735Z,90.77
2019-05-17T01:53:10.677Z,90.72
2019-05-17T01:53:40.733Z,90.71
2019-05-17T01:54:10.671Z,90.71
2019-05-17T01:54:43.655Z,90.73
2019-05-17T01:55:10.672Z,90.73
2019-05-17T01:55:40.733Z,90.74
2019-05-17T01:56:10.675Z,90.75
2019-05-17T01:56:40.739Z,90.79
2019-05-17T01:57:10.685Z,90.77
2019-05-17T01:57:40.738Z,90.80
2019-05-17T01:58:10.673Z,90.85
2019-05-17T01:58:40.731Z,90.86
2019-05-17T01:59:10.673Z,90.89
2019-05-17T01:59:40.736Z,90.89
2019-05-17T02:00:10.668Z,90.94
2019-05-17T02:00:40.733Z,90.94
2019-05-17T02:01:10.667Z,90.96
2019-05-17T02:01:40.731Z,90.99
2019-05-17T02:02:13.232Z,90.99
2019-05-17T02:02:40.735Z,90.99
2019-05-17T02:03:10.670Z,91.02
2019-05-17T02:03:40.733Z,91.02
2019-05-17T02:04:10.743Z,91.03
2019-05-17T02:04:40.733Z,91.05
2019-05-17T02:05:13.288Z,91.04
2019-05-17T02:05:40.737Z,91.04
2019-05-17T02:06:10.682Z,91.00
2019-05-17T02:06:40.735Z,90.99
2019-05-17T02:07:10.680Z,90.93
2019-05-17T02:07:40.742Z,90.92
2019-05-17T02:08:10.678Z,90.90
2019-05-17T02:08:40.737Z,90.90
2019-05-17T02:09:10.680Z,90.91
2019-05-17T02:09:42.757Z,90.90
2019-05-17T02:10:10.676Z,90.93
2019-05-17T02:10:40.736Z,90.98
2019-05-17T02:11:10.677Z,90.97
2019-05-17T02:11:40.742Z,91.01
2019-05-17T02:12:10.679Z,91.03
2019-05-17T02:12:43.515Z,91.06
2019-05-17T02:13:10.678Z,91.06
2019-05-17T02:13:40.733Z,91.11
2019-05-17T02:14:10.675Z,91.12
2019-05-17T02:14:40.734Z,91.09
2019-05-17T02:15:10.670Z,91.10
2019-05-17T02:15:43.580Z,91.08
2019-05-17T02:16:10.678Z,91.03
2019-05-17T02:16:40.736Z,91.04
2019-05-17T02:17:10.679Z,91.03
2019-05-17T02:17:40.735Z,91.02
2019-05-17T02:18:10.688Z,90.99
2019-05-17T02:18:40.733Z,90.98
2019-05-17T02:19:10.690Z,91.00
2019-05-17T02:19:40.737Z,91.00
2019-05-17T02:20:10.677Z,91.02
2019-05-17T02:20:40.747Z,91.00
2019-05-17T02:21:10.682Z,90.96
2019-05-17T02:21:40.739Z,91.02
2019-05-17T02:22:10.703Z,91.01
2019-05-17T02:22:40.749Z,91.02
2019-05-17T02:23:13.423Z,91.05
2019-05-17T02:23:40.739Z,91.04
2019-05-17T02:24:10.683Z,91.10
2019-05-17T02:24:40.740Z,91.11
2019-05-17T02:25:10.687Z,91.13
2019-05-17T02:25:40.735Z,91.13
2019-05-17T02:26:13.487Z,91.12
2019-05-17T02:26:40.739Z,91.16
2019-05-17T02:27:10.687Z,91.14
2019-05-17T02:27:44.656Z,91.17
2019-05-17T02:28:12.709Z,91.15
2019-05-17T02:28:41.761Z,91.17
2019-05-17T02:29:12.747Z,91.19
2019-05-17T02:29:42.761Z,91.19
2019-05-17T02:30:13.985Z,91.22
2019-05-17T02:30:44.030Z,91.28
2019-05-17T02:31:13.403Z,91.31
2019-05-17T02:31:43.610Z,91.34
2019-05-17T02:32:12.982Z,91.40
2019-05-17T02:32:43.354Z,91.36
2019-05-17T02:33:12.830Z,91.42
2019-05-17T02:33:44.295Z,91.41
2019-05-17T02:34:14.070Z,91.45
2019-05-17T02:34:45.843Z,91.42
2019-05-17T02:35:14.255Z,91.47
2019-05-17T02:35:43.060Z,91.47
2019-05-17T02:36:14.110Z,91.48
2019-05-17T02:36:44.307Z,91.48
2019-05-17T02:37:13.597Z,91.54
2019-05-17T02:37:45.447Z,91.55
2019-05-17T02:38:13.322Z,91.58
2019-05-17T02:38:43.561Z,91.53
2019-05-17T02:39:13.220Z,91.50
2019-05-17T02:39:53.647Z,91.49
2019-05-17T02:40:14.378Z,91.47
2019-05-17T02:40:43.163Z,91.47
2019-05-17T02:41:14.066Z,91.50
2019-05-17T02:41:43.282Z,91.53
2019-05-17T02:42:13.770Z,91.49
2019-05-17T02:42:43.267Z,91.51
2019-05-17T02:43:13.220Z,91.54
2019-05-17T02:43:43.465Z,91.58
2019-05-17T02:44:14.219Z,91.55
2019-05-17T02:44:43.711Z,91.57
2019-05-17T02:45:15.340Z,91.54
2019-05-17T02:45:43.484Z,91.55
2019-05-17T02:46:13.551Z,91.60
2019-05-17T02:46:43.429Z,91.62
2019-05-17T02:47:14.318Z,91.59
2019-05-17T02:47:43.775Z,91.64
2019-05-17T02:48:15.292Z,91.58
2019-05-17T02:48:43.041Z,91.61
2019-05-17T02:49:13.657Z,91.64
2019-05-17T02:49:47.171Z,91.64
2019-05-17T02:50:13.214Z,91.69
2019-05-17T02:50:43.214Z,91.70
2019-05-17T02:51:13.207Z,91.72
2019-05-17T02:51:43.194Z,91.75
2019-05-17T02:52:12.723Z,91.72
2019-05-17T02:52:43.915Z,91.77
2019-05-17T02:53:13.170Z,91.76
2019-05-17T02:53:43.150Z,91.74
2019-05-17T02:54:13.337Z,91.78
2019-05-17T02:54:44.495Z,91.77
2019-05-17T02:55:13.200Z,91.78
2019-05-17T02:55:45.420Z,91.81
2019-05-17T02:56:13.565Z,91.83
2019-05-17T02:56:43.691Z,91.83
2019-05-17T02:57:14.100Z,91.85
2019-05-17T02:57:44.518Z,91.89
2019-05-17T02:58:12.955Z,91.89
2019-05-17T02:58:45.366Z,91.90
2019-05-17T02:59:13.517Z,91.89
2019-05-17T02:59:43.345Z,91.89
2019-05-17T03:00:13.553Z,91.93
2019-05-17T03:00:44.191Z,91.93
2019-05-17T03:01:12.925Z,91.92
2019-05-17T03:01:44.141Z,91.94
2019-05-17T03:02:12.883Z,91.91
2019-05-17T03:02:43.763Z,91.93
2019-05-17T03:03:13.398Z,91.91
2019-05-17T03:03:43.616Z,91.89
2019-05-17T03:04:13.079Z,91.89
2019-05-17T03:04:43.321Z,91.88
2019-05-17T03:05:14.221Z,91.85
2019-05-17T03:05:43.136Z,91.84
2019-05-17T03:06:15.359Z,91.86
2019-05-17T03:06:43.821Z,91.89
2019-05-17T03:07:13.661Z,91.89
2019-05-17T03:07:43.720Z,91.90
2019-05-17T03:08:13.243Z,91.91
2019-05-17T03:08:43.015Z,91.95
2019-05-17T03:09:15.331Z,91.94
2019-05-17T03:09:43.194Z,91.96
2019-05-17T03:10:22.600Z,91.99
2019-05-17T03:10:43.335Z,91.97
2019-05-17T03:11:13.432Z,91.98
2019-05-17T03:11:43.079Z,91.95
2019-05-17T03:12:13.067Z,91.98
2019-05-17T03:12:44.287Z,91.94
2019-05-17T03:13:15.340Z,92.01
2019-05-17T03:13:43.497Z,92.02
2019-05-17T03:14:13.097Z,92.01
2019-05-17T03:14:43.383Z,91.98
2019-05-17T03:15:13.203Z,92.01
2019-05-17T03:15:43.520Z,92.04
2019-05-17T03:16:14.598Z,92.07
2019-05-17T03:16:45.417Z,92.07
2019-05-17T03:17:13.979Z,92.05
2019-05-17T03:17:43.574Z,92.06
2019-05-17T03:18:13.452Z,92.12
2019-05-17T03:18:44.607Z,92.12
2019-05-17T03:19:13.237Z,92.09
2019-05-17T03:19:45.472Z,92.10
2019-05-17T03:20:13.381Z,92.10
2019-05-17T03:20:43.228Z,92.12
2019-05-17T03:21:13.474Z,92.12
2019-05-17T03:21:43.130Z,92.13
2019-05-17T03:22:13.199Z,92.17
2019-05-17T03:22:43.847Z,92.19
2019-05-17T03:23:12.865Z,92.19
2019-05-17T03:23:43.634Z,92.20
2019-05-17T03:24:13.594Z,92.23
2019-05-17T03:24:43.851Z,92.20
2019-05-17T03:25:13.774Z,92.21
2019-05-17T03:25:43.927Z,92.19
2019-05-17T03:26:14.191Z,92.19
2019-05-17T03:26:43.202Z,92.19
2019-05-17T03:27:15.324Z,92.19
2019-05-17T03:27:43.157Z,92.17
2019-05-17T03:28:13.484Z,92.18
2019-05-17T03:28:42.875Z,92.17
2019-05-17T03:29:14.231Z,92.19
2019-05-17T03:29:42.789Z,92.21
2019-05-17T03:30:16.871Z,92.19
2019-05-17T03:30:46.561Z,92.19
2019-05-17T03:31:16.503Z,92.19
2019-05-17T03:31:50.787Z,92.25
2019-05-17T03:32:16.922Z,92.28
2019-05-17T03:32:47.143Z,92.32
2019-05-17T03:33:15.842Z,92.34
2019-05-17T03:33:45.775Z,92.35
2019-05-17T03:34:16.571Z,92.32
2019-05-17T03:34:44.858Z,92.34
2019-05-17T03:35:16.323Z,92.30
2019-05-17T03:35:45.640Z,92.29
2019-05-17T03:36:16.641Z,92.32
2019-05-17T03:36:47.255Z,92.32
2019-05-17T03:37:15.912Z,92.36
2019-05-17T03:37:45.392Z,92.32
2019-05-17T03:38:14.052Z,92.40
2019-05-17T03:38:43.188Z,92.37
2019-05-17T03:39:13.054Z,92.39
2019-05-17T03:39:43.249Z,92.41
2019-05-17T03:40:24.660Z,92.41
2019-05-17T03:41:06.605Z,92.40
2019-05-17T03:41:19.870Z,92.39
2019-05-17T03:41:43.013Z,92.38
2019-05-17T03:42:13.241Z,92.39
2019-05-17T03:42:43.143Z,92.43
2019-05-17T03:43:13.771Z,92.47
2019-05-17T03:43:44.163Z,92.48
2019-05-17T03:44:13.496Z,92.47
2019-05-17T03:44:43.780Z,92.48
2019-05-17T03:45:13.581Z,92.49
2019-05-17T03:45:42.800Z,92.51
2019-05-17T03:46:13.806Z,92.54
2019-05-17T03:46:42.787Z,92.59
2019-05-17T03:47:14.226Z,92.57
2019-05-17T03:47:44.281Z,92.57
2019-05-17T03:48:15.431Z,92.61
2019-05-17T03:48:43.614Z,92.63
2019-05-17T03:49:13.175Z,92.66
2019-05-17T03:49:43.600Z,92.62
2019-05-17T03:50:14.570Z,92.62
2019-05-17T03:50:43.526Z,92.62
2019-05-17T03:51:15.370Z,92.57
2019-05-17T03:51:42.858Z,92.57
2019-05-17T03:52:13.499Z,92.58
2019-05-17T03:52:44.275Z,92.57
2019-05-17T03:53:13.227Z,92.56
2019-05-17T03:53:44.100Z,92.52
2019-05-17T03:54:13.737Z,92.53
2019-05-17T03:54:43.140Z,92.53
2019-05-17T03:55:13.272Z,92.57
2019-05-17T03:55:43.044Z,92.57
2019-05-17T03:56:13.280Z,92.55
2019-05-17T03:56:42.961Z,92.55
2019-05-17T03:57:13.364Z,92.55
2019-05-17T03:57:44.572Z,92.55
2019-05-17T03:58:12.952Z,92.48
2019-05-17T03:58:45.409Z,92.48
2019-05-17T03:59:13.153Z,92.52
2019-05-17T03:59:43.153Z,92.43
2019-05-17T04:00:13.423Z,92.41
2019-05-17T04:00:43.552Z,92.39
2019-05-17T04:01:13.950Z,92.33
2019-05-17T04:01:45.432Z,92.32
2019-05-17T04:02:12.726Z,92.30
2019-05-17T04:02:44.229Z,92.25
2019-05-17T04:03:13.660Z,92.17
2019-05-17T04:03:43.326Z,92.14
2019-05-17T04:04:13.344Z,92.11
2019-05-17T04:04:43.054Z,92.09
2019-05-17T04:05:12.979Z,92.05
2019-05-17T04:05:43.110Z,92.02
2019-05-17T04:06:13.383Z,92.00
2019-05-17T04:06:43.565Z,91.93
2019-05-17T04:07:13.010Z,91.95
2019-05-17T04:07:43.719Z,91.90
2019-05-17T04:08:14.311Z,91.90
2019-05-17T04:08:42.786Z,91.85
2019-05-17T04:09:15.353Z,91.81
2019-05-17T04:09:43.680Z,91.72
2019-05-17T04:10:10.711Z,91.66
2019-05-17T04:10:42.797Z,91.60
2019-05-17T04:11:25.589Z,91.53
2019-05-17T04:11:43.077Z,91.44
2019-05-17T04:12:15.467Z,91.42
2019-05-17T04:12:43.998Z,91.36
2019-05-17T04:13:13.046Z,91.29
2019-05-17T04:13:43.090Z,91.15
2019-05-17T04:14:13.860Z,91.04
2019-05-17T04:14:43.096Z,90.98
2019-05-17T04:15:13.506Z,90.89
2019-05-17T04:15:43.425Z,90.75
2019-05-17T04:16:13.838Z,90.60
2019-05-17T04:16:43.027Z,90.50
2019-05-17T04:17:13.195Z,90.42
2019-05-17T04:17:43.788Z,90.23
2019-05-17T04:18:13.139Z,90.03
2019-05-17T04:18:44.668Z,89.86
2019-05-17T04:19:13.855Z,89.67
2019-05-17T04:19:45.400Z,89.50
2019-05-17T04:20:13.614Z,89.34
2019-05-17T04:20:43.448Z,89.24
2019-05-17T04:21:12.752Z,89.09
2019-05-17T04:21:43.500Z,88.92
2019-05-17T04:22:13.724Z,88.76
2019-05-17T04:22:45.527Z,88.60
2019-05-17T04:23:13.038Z,88.46
2019-05-17T04:23:43.098Z,88.34
2019-05-17T04:24:13.002Z,88.28
2019-05-17T04:24:43.767Z,88.21
2019-05-17T04:25:13.525Z,88.11
2019-05-17T04:25:43.471Z,88.01
2019-05-17T04:26:13.470Z,87.83
2019-05-17T04:26:43.742Z,87.67
2019-05-17T04:27:13.537Z,87.51
2019-05-17T04:27:43.726Z,87.36
2019-05-17T04:28:13.573Z,87.12
2019-05-17T04:28:44.011Z,86.81
2019-05-17T04:29:14.177Z,86.63
2019-05-17T04:29:42.785Z,86.55
2019-05-17T04:30:15.434Z,86.42
2019-05-17T04:30:43.342Z,86.34
2019-05-17T04:31:13.339Z,86.23
2019-05-17T04:31:43.535Z,86.11
2019-05-17T04:32:14.232Z,85.89
2019-05-17T04:32:44.031Z,85.69
2019-05-17T04:33:15.338Z,85.64
2019-05-17T04:33:43.245Z,85.51
2019-05-17T04:34:13.588Z,85.29
2019-05-17T04:34:43.639Z,85.16
2019-05-17T04:35:13.446Z,85.13
2019-05-17T04:35:43.257Z,85.03
2019-05-17T04:36:13.232Z,85.02
2019-05-17T04:36:43.270Z,84.88
2019-05-17T04:37:13.019Z,84.82
2019-05-17T04:37:44.353Z,84.78
2019-05-17T04:38:12.978Z,84.70
2019-05-17T04:38:43.516Z,84.68
2019-05-17T04:39:13.444Z,84.60
2019-05-17T04:39:44.164Z,84.39
2019-05-17T04:40:14.051Z,83.99
2019-05-17T04:40:45.443Z,83.81
2019-05-17T04:41:13.366Z,83.75
2019-05-17T04:41:49.212Z,83.74
2019-05-17T04:42:13.509Z,83.69
2019-05-17T04:42:44.656Z,83.62
2019-05-17T04:43:13.531Z,83.46
2019-05-17T04:43:45.394Z,83.29
2019-05-17T04:44:12.986Z,83.15
2019-05-17T04:44:43.211Z,83.07
2019-05-17T04:45:13.090Z,82.99
2019-05-17T04:45:42.834Z,82.92
2019-05-17T04:46:13.169Z,82.80
2019-05-17T04:46:43.216Z,82.71
2019-05-17T04:47:13.342Z,82.64
2019-05-17T04:47:44.095Z,82.52
2019-05-17T04:48:13.285Z,82.36
2019-05-17T04:48:43.765Z,82.29
2019-05-17T04:49:13.721Z,82.18
2019-05-17T04:49:43.914Z,82.13
2019-05-17T04:50:14.417Z,81.91
2019-05-17T04:50:43.061Z,81.76
2019-05-17T04:51:15.377Z,81.62
2019-05-17T04:51:43.782Z,81.46
2019-05-17T04:52:13.691Z,81.28
2019-05-17T04:52:43.349Z,81.05
2019-05-17T04:53:14.246Z,80.87
2019-05-17T04:53:43.209Z,80.72
2019-05-17T04:54:15.372Z,80.64
2019-05-17T04:54:42.796Z,80.51
2019-05-17T04:55:13.697Z,80.30
2019-05-17T04:55:43.219Z,80.19
2019-05-17T04:56:13.920Z,80.00
2019-05-17T04:56:42.812Z,79.89
2019-05-17T04:57:13.227Z,79.85
2019-05-17T04:57:43.701Z,79.73
2019-05-17T04:58:13.658Z,79.49
2019-05-17T04:58:43.097Z,79.16
2019-05-17T04:59:13.748Z,78.91
2019-05-17T04:59:43.443Z,78.73
2019-05-17T05:00:13.203Z,78.67
2019-05-17T05:00:43.586Z,78.22
2019-05-17T05:01:13.162Z,78.06
2019-05-17T05:01:45.401Z,78.23
2019-05-17T05:02:13.240Z,78.30
2019-05-17T05:02:43.821Z,78.30
2019-05-17T05:03:12.973Z,78.02
2019-05-17T05:03:44.171Z,77.83
2019-05-17T05:04:10.721Z,77.36
2019-05-17T05:04:45.445Z,77.37
2019-05-17T05:05:13.516Z,77.34
2019-05-17T05:05:43.042Z,77.27
2019-05-17T05:06:13.443Z,77.02
2019-05-17T05:06:43.515Z,76.89
2019-05-17T05:07:13.649Z,76.83
2019-05-17T05:07:43.542Z,76.64
2019-05-17T05:08:13.089Z,76.61
2019-05-17T05:08:42.807Z,76.60
2019-05-17T05:09:12.938Z,76.65
2019-05-17T05:09:43.195Z,76.78
2019-05-17T05:10:13.635Z,77.06
2019-05-17T05:10:43.038Z,77.02
2019-05-17T05:11:13.172Z,76.92
2019-05-17T05:11:53.064Z,77.27
2019-05-17T05:12:15.639Z,77.11
2019-05-17T05:12:43.722Z,76.96
2019-05-17T05:13:13.377Z,76.92
2019-05-17T05:13:42.877Z,77.07
2019-05-17T05:14:13.236Z,77.17
2019-05-17T05:14:43.216Z,77.34
2019-05-17T05:15:15.438Z,77.49
2019-05-17T05:15:44.270Z,77.83
2019-05-17T05:16:13.419Z,78.09
2019-05-17T05:16:42.805Z,78.28
2019-05-17T05:17:13.001Z,78.20
2019-05-17T05:17:43.138Z,78.23
2019-05-17T05:18:13.383Z,78.29
2019-05-17T05:18:42.828Z,78.37
2019-05-17T05:19:13.066Z,78.49
2019-05-17T05:19:42.801Z,78.70
2019-05-17T05:20:13.357Z,78.71
2019-05-17T05:20:43.416Z,78.69
2019-05-17T05:21:12.747Z,78.67
2019-05-17T05:21:43.181Z,78.78
2019-05-17T05:22:13.588Z,78.74
2019-05-17T05:22:45.406Z,79.06
2019-05-17T05:23:13.380Z,79.43
2019-05-17T05:23:42.803Z,79.49
2019-05-17T05:24:12.750Z,79.62
2019-05-17T05:24:43.249Z,79.77
2019-05-17T05:25:12.864Z,80.14
2019-05-17T05:25:45.546Z,80.23
2019-05-17T05:26:12.747Z,80.54
2019-05-17T05:26:42.802Z,80.82
2019-05-17T05:27:12.759Z,80.90
2019-05-17T05:27:43.043Z,81.11
2019-05-17T05:28:11.814Z,81.26
2019-05-17T05:28:42.813Z,81.54
2019-05-17T05:29:13.008Z,81.74
2019-05-17T05:29:42.808Z,82.04
2019-05-17T05:30:12.769Z,82.04
2019-05-17T05:30:42.807Z,82.07
2019-05-17T05:31:13.083Z,81.86
2019-05-17T05:31:42.904Z,81.68
2019-05-17T05:32:13.568Z,81.66
2019-05-17T05:32:42.994Z,81.71
2019-05-17T05:33:15.343Z,81.91
2019-05-17T05:33:42.809Z,82.13
2019-05-17T05:34:12.745Z,82.29
2019-05-17T05:34:43.296Z,81.91
2019-05-17T05:35:13.539Z,81.62
2019-05-17T05:35:42.955Z,81.65
2019-05-17T05:36:11.737Z,81.90
2019-05-17T05:36:42.802Z,82.37
2019-05-17T05:37:12.740Z,82.45
2019-05-17T05:37:42.827Z,82.52
2019-05-17T05:38:13.287Z,82.73
2019-05-17T05:38:42.894Z,82.92
2019-05-17T05:39:12.741Z,83.01
2019-05-17T05:39:41.800Z,82.99
2019-05-17T05:40:13.110Z,82.96
2019-05-17T05:40:41.816Z,83.07
2019-05-17T05:41:12.743Z,83.07
2019-05-17T05:41:42.855Z,83.05
2019-05-17T05:42:13.921Z,83.06
2019-05-17T05:42:43.542Z,83.19
2019-05-17T05:43:12.753Z,83.29
2019-05-17T05:43:45.495Z,83.43
2019-05-17T05:44:12.750Z,83.34
2019-05-17T05:44:41.801Z,83.20
2019-05-17T05:45:12.754Z,83.40
2019-05-17T05:45:43.595Z,83.56
2019-05-17T05:46:12.748Z,83.63
2019-05-17T05:46:45.425Z,83.71
2019-05-17T05:47:12.742Z,83.79
2019-05-17T05:47:41.797Z,83.95
2019-05-17T05:48:13.208Z,83.85
2019-05-17T05:48:41.806Z,83.52
2019-05-17T05:49:12.750Z,83.68
2019-05-17T05:49:42.824Z,83.70
2019-05-17T05:50:12.938Z,83.11
2019-05-17T05:50:43.283Z,82.75
2019-05-17T05:51:13.643Z,82.76
2019-05-17T05:51:42.803Z,82.54
2019-05-17T05:52:12.748Z,82.67
2019-05-17T05:52:42.811Z,82.55
2019-05-17T05:53:13.605Z,82.18
2019-05-17T05:53:42.808Z,81.84
2019-05-17T05:54:15.370Z,81.86
2019-05-17T05:54:41.798Z,81.52
2019-05-17T05:55:12.802Z,80.98
2019-05-17T05:55:43.291Z,80.99
2019-05-17T05:56:14.498Z,81.17
2019-05-17T05:56:42.806Z,81.24
2019-05-17T05:57:15.366Z,81.53
2019-05-17T05:57:42.802Z,81.83
2019-05-17T05:58:12.754Z,81.93
2019-05-17T05:58:42.981Z,81.81
2019-05-17T05:59:12.750Z,81.80
2019-05-17T05:59:42.810Z,81.36
2019-05-17T06:00:12.986Z,80.81
2019-05-17T06:00:43.156Z,80.37
2019-05-17T06:01:13.003Z,79.93
2019-05-17T06:01:42.903Z,79.86
2019-05-17T06:02:12.755Z,79.65
2019-05-17T06:02:42.870Z,79.42
2019-05-17T06:03:12.750Z,79.73
2019-05-17T06:03:43.558Z,79.69
2019-05-17T06:04:12.758Z,79.40
2019-05-17T06:04:45.429Z,79.05
2019-05-17T06:05:16.632Z,78.97
2019-05-17T06:05:42.812Z,78.84
2019-05-17T06:06:12.756Z,78.89
2019-05-17T06:06:43.204Z,78.61
2019-05-17T06:07:12.986Z,78.72
2019-05-17T06:07:45.423Z,79.20
2019-05-17T06:08:12.753Z,78.76
2019-05-17T06:08:41.809Z,78.73
2019-05-17T06:09:12.759Z,79.04
2019-05-17T06:09:42.879Z,79.53
2019-05-17T06:10:13.246Z,78.98
2019-05-17T06:10:43.072Z,78.57
2019-05-17T06:11:12.751Z,78.45
2019-05-17T06:11:42.818Z,79.05
2019-05-17T06:12:22.877Z,79.27
2019-05-17T06:12:43.574Z,78.71
2019-05-17T06:13:13.341Z,78.37
2019-05-17T06:13:42.814Z,78.46
2019-05-17T06:14:13.574Z,78.57
2019-05-17T06:14:42.810Z,78.81
2019-05-17T06:15:15.461Z,78.39
2019-05-17T06:15:43.248Z,77.84
2019-05-17T06:16:12.759Z,77.98
2019-05-17T06:16:42.822Z,78.52
2019-05-17T06:17:13.516Z,78.76
2019-05-17T06:17:43.207Z,78.60
2019-05-17T06:18:15.400Z,78.99
2019-05-17T06:18:42.826Z,79.16
2019-05-17T06:19:12.752Z,78.81
2019-05-17T06:19:42.821Z,78.30
2019-05-17T06:20:12.825Z,77.82
2019-05-17T06:20:42.814Z,77.88
2019-05-17T06:21:12.755Z,77.93
2019-05-17T06:21:42.943Z,78.38
2019-05-17T06:22:12.822Z,78.53
2019-05-17T06:22:43.107Z,77.76
2019-05-17T06:23:12.758Z,77.67
2019-05-17T06:23:42.816Z,77.97
2019-05-17T06:24:12.770Z,77.86
2019-05-17T06:24:43.512Z,78.02
2019-05-17T06:25:14.702Z,78.19
2019-05-17T06:25:45.475Z,78.30
2019-05-17T06:26:12.762Z,78.69